createdAt,value
2022-07-29T00:04:36.241Z,101312.72
2022-07-29T00:09:41.935Z,101308.53
2022-07-29T00:14:56.901Z,101298.63
2022-07-29T00:19:59.652Z,101297.31
2022-07-29T00:25:02.272Z,101286.03
2022-07-29T00:30:07.748Z,101269.91
2022-07-29T00:35:29.374Z,101265.94
2022-07-29T00:40:32.022Z,101256.19
2022-07-29T00:45:36.599Z,101239.69
2022-07-29T00:50:39.513Z,101233.88
2022-07-29T00:55:42.164Z,101230.16
2022-07-29T01:00:46.350Z,101225.44
2022-07-29T01:05:50.638Z,101220.13
2022-07-29T01:10:55.117Z,101229.94
2022-07-29T01:16:05.309Z,101237.03
2022-07-29T01:21:38.745Z,101236.28
2022-07-29T01:26:50.957Z,101218.34
2022-07-29T01:32:00.906Z,101219.53
2022-07-29T01:37:09.594Z,101218.06
2022-07-29T01:42:17.825Z,101207.31
2022-07-29T01:47:27.379Z,101212.28
2022-07-29T01:52:36.018Z,101211.31
2022-07-29T01:57:41.336Z,101219.84
2022-07-29T02:02:49.173Z,101211.94
2022-07-29T02:07:54.137Z,101209.13
2022-07-29T02:12:59.151Z,101220.41
2022-07-29T02:18:08.842Z,101254.31
2022-07-29T02:23:13.778Z,101249.50
2022-07-29T02:28:18.139Z,101266.69
2022-07-29T02:33:24.596Z,101265.00
2022-07-29T02:38:47.212Z,101262.88
2022-07-29T02:43:54.613Z,101270.88
2022-07-29T02:49:05.106Z,101270.44
2022-07-29T02:54:11.161Z,101265.97
2022-07-29T02:59:22.010Z,101246.00
2022-07-29T03:04:29.272Z,101266.28
2022-07-29T03:09:32.495Z,101266.91
2022-07-29T03:14:36.972Z,101257.16
2022-07-29T03:19:41.526Z,101242.97
2022-07-29T03:24:44.181Z,101257.34
2022-07-29T03:29:49.770Z,101261.16
2022-07-29T03:34:54.744Z,101259.59
2022-07-29T03:39:59.468Z,101260.84
2022-07-29T03:45:05.310Z,101270.88
2022-07-29T03:50:12.661Z,101278.28
2022-07-29T03:55:16.613Z,101286.59
2022-07-29T04:00:20.623Z,101306.25
2022-07-29T04:05:24.849Z,101302.72
2022-07-29T04:10:31.691Z,101320.28
2022-07-29T04:15:34.886Z,101330.63
2022-07-29T04:20:39.285Z,101328.81
2022-07-29T04:25:42.596Z,101308.72
2022-07-29T04:30:45.375Z,101278.44
2022-07-29T04:35:50.403Z,101270.41
2022-07-29T04:40:55.168Z,101260.50
2022-07-29T04:45:59.014Z,101237.19
2022-07-29T04:51:03.216Z,101227.78
2022-07-29T04:56:06.636Z,101221.75
2022-07-29T05:01:09.345Z,101235.63
2022-07-29T05:06:13.723Z,101233.88
2022-07-29T05:11:21.339Z,101243.31
2022-07-29T05:16:25.114Z,101245.63
2022-07-29T05:21:29.169Z,101247.81
2022-07-29T05:26:31.770Z,101222.34
2022-07-29T05:31:34.471Z,101197.34
2022-07-29T05:36:38.411Z,101230.25
2022-07-29T05:41:42.054Z,101238.88
2022-07-29T05:46:44.953Z,101255.03
2022-07-29T05:51:50.197Z,101265.06
2022-07-29T05:56:52.778Z,101278.19
2022-07-29T06:01:55.607Z,101265.75
2022-07-29T06:06:59.821Z,101258.47
2022-07-29T06:12:02.416Z,101249.22
2022-07-29T06:17:05.506Z,101243.91
2022-07-29T06:22:09.411Z,101232.19
2022-07-29T06:27:12.211Z,101203.13
2022-07-29T06:32:16.006Z,101230.25
2022-07-29T06:37:19.902Z,101217.44
2022-07-29T06:42:22.641Z,101228.69
2022-07-29T06:47:25.603Z,101239.94
2022-07-29T06:52:30.308Z,101275.38
2022-07-29T06:57:34.093Z,101303.00
2022-07-29T07:02:37.042Z,101314.56
2022-07-29T07:07:41.180Z,101337.19
2022-07-29T07:12:44.026Z,101351.47
2022-07-29T07:17:47.089Z,101355.75
2022-07-29T07:22:51.029Z,101352.78
2022-07-29T07:27:53.744Z,101357.00
2022-07-29T07:32:56.350Z,101350.22
2022-07-29T07:38:01.016Z,101353.06
2022-07-29T07:43:03.840Z,101341.34
2022-07-29T07:48:11.678Z,101339.91
2022-07-29T07:53:16.819Z,101329.81
2022-07-29T07:58:19.408Z,101333.84
2022-07-29T08:03:22.207Z,101330.19
2022-07-29T08:08:26.128Z,101338.41
2022-07-29T08:13:29.732Z,101341.16
2022-07-29T08:18:33.443Z,101342.06
2022-07-29T08:23:46.893Z,101328.97
2022-07-29T08:28:51.755Z,101338.91
2022-07-29T08:33:54.452Z,101324.97
2022-07-29T08:38:58.658Z,101317.38
2022-07-29T08:44:01.212Z,101326.72
2022-07-29T08:49:04.133Z,101331.81
2022-07-29T08:54:11.007Z,101335.75
2022-07-29T08:59:15.103Z,101329.91
2022-07-29T09:04:20.676Z,101347.91
2022-07-29T09:09:24.765Z,101343.16
2022-07-29T09:14:27.500Z,101338.03
2022-07-29T09:19:35.105Z,101330.47
2022-07-29T09:24:42.384Z,101339.34
2022-07-29T09:29:45.448Z,101331.56
2022-07-29T09:34:48.408Z,101328.19
2022-07-29T09:39:53.440Z,101338.06
2022-07-29T09:44:56.540Z,101332.31
2022-07-29T09:50:01.394Z,101336.13
2022-07-29T09:55:17.890Z,101334.16
2022-07-29T10:00:23.990Z,101327.34
2022-07-29T10:05:36.815Z,101323.09
2022-07-29T10:10:43.451Z,101276.38
2022-07-29T10:15:47.252Z,101332.41
2022-07-29T10:20:50.416Z,101330.84
2022-07-29T10:25:54.844Z,101338.66
2022-07-29T10:31:03.954Z,101334.38
2022-07-29T10:36:34.492Z,101342.16
2022-07-29T10:42:01.318Z,101349.72
2022-07-29T10:47:06.550Z,101353.56
2022-07-29T10:52:11.407Z,101353.72
2022-07-29T10:57:18.359Z,101342.81
2022-07-29T11:08:26.533Z,101340.69
2022-07-29T11:13:55.942Z,101355.91
2022-07-29T11:19:29.852Z,101358.44
2022-07-29T11:24:35.678Z,101352.44
2022-07-29T11:29:43.110Z,101358.34
2022-07-29T11:34:46.368Z,101356.13
2022-07-29T11:40:11.438Z,101352.34
2022-07-29T11:45:43.218Z,101351.97
2022-07-29T11:50:44.305Z,101362.56
2022-07-29T12:01:19.394Z,101361.91
2022-07-29T12:06:22.460Z,101362.91
2022-07-29T12:11:25.295Z,101365.91
2022-07-29T12:16:38.202Z,101358.81
2022-07-29T12:21:53.817Z,101355.53
2022-07-29T12:27:01.058Z,101362.28
2022-07-29T12:32:14.757Z,101363.84
2022-07-29T12:37:30.978Z,101368.44
2022-07-29T12:43:10.115Z,101360.81
2022-07-29T12:48:13.742Z,101361.16
2022-07-29T12:53:17.658Z,101364.66
2022-07-29T12:58:35.674Z,101368.22
2022-07-29T13:03:57.195Z,101360.50
2022-07-29T13:09:09.453Z,101360.31
2022-07-29T13:14:16.232Z,101365.69
2022-07-29T13:19:19.043Z,101370.22
2022-07-29T13:24:22.601Z,101362.28
2022-07-29T13:29:31.351Z,101361.22
2022-07-29T13:34:34.744Z,101359.00
2022-07-29T13:39:38.273Z,101370.78
2022-07-29T13:44:42.811Z,101362.31
2022-07-29T13:49:45.433Z,101352.34
2022-07-29T13:54:48.530Z,101348.84
2022-07-29T13:59:54.477Z,101353.69
2022-07-29T14:04:57.411Z,101349.69
2022-07-29T14:10:00.133Z,101346.00
2022-07-29T14:15:05.277Z,101340.91
2022-07-29T14:20:08.819Z,101342.50
2022-07-29T14:25:15.082Z,101349.06
2022-07-29T14:30:19.931Z,101339.53
2022-07-29T14:35:22.504Z,101335.88
2022-07-29T14:40:26.541Z,101337.94
2022-07-29T14:45:30.818Z,101341.31
2022-07-29T14:50:33.878Z,101330.81
2022-07-29T14:55:36.604Z,101323.19
2022-07-29T15:00:40.926Z,101333.78
2022-07-29T15:05:43.686Z,101339.84
2022-07-29T15:10:46.377Z,101334.84
2022-07-29T15:15:50.777Z,101331.84
2022-07-29T15:20:53.350Z,101325.63
2022-07-29T15:25:56.963Z,101323.13
2022-07-29T15:31:01.078Z,101323.53
2022-07-29T15:36:10.193Z,101327.78
2022-07-29T15:41:15.661Z,101321.72
2022-07-29T15:46:38.812Z,101325.31
2022-07-29T15:51:41.672Z,101312.31
2022-07-29T15:56:44.596Z,101324.53
2022-07-29T16:01:48.745Z,101319.94
2022-07-29T16:06:52.077Z,101320.63
2022-07-29T16:11:56.177Z,101316.06
2022-07-29T16:17:03.861Z,101307.63
2022-07-29T16:22:06.821Z,101311.31
2022-07-29T16:27:09.864Z,101315.25
2022-07-29T16:32:13.807Z,101315.41
2022-07-29T16:37:16.811Z,101302.91
2022-07-29T16:42:36.950Z,101305.13
2022-07-29T16:47:44.156Z,101313.06
2022-07-29T16:52:46.895Z,101302.75
2022-07-29T16:57:49.697Z,101313.91
2022-07-29T17:02:56.472Z,101310.03
2022-07-29T17:07:59.087Z,101295.34
2022-07-29T17:13:02.164Z,101303.44
2022-07-29T17:18:12.357Z,101319.47
2022-07-29T17:23:15.562Z,101315.13
2022-07-29T17:28:18.201Z,101319.16
2022-07-29T17:33:22.687Z,101309.69
2022-07-29T17:38:25.458Z,101317.63
2022-07-29T17:43:28.077Z,101326.91
2022-07-29T17:48:32.059Z,101323.03
2022-07-29T17:53:34.816Z,101325.06
2022-07-29T17:58:38.847Z,101327.75
2022-07-29T18:03:44.199Z,101329.94
2022-07-29T18:08:47.459Z,101325.91
2022-07-29T18:13:50.236Z,101340.56
2022-07-29T18:18:55.689Z,101335.13
2022-07-29T18:23:58.315Z,101341.19
2022-07-29T18:29:00.914Z,101346.56
2022-07-29T18:34:06.139Z,101346.38
2022-07-29T18:39:08.849Z,101342.16
2022-07-29T18:44:16.847Z,101344.97
2022-07-29T18:49:21.433Z,101354.38
2022-07-29T18:54:24.173Z,101349.94
2022-07-29T18:59:28.239Z,101349.22
2022-07-29T19:04:32.330Z,101353.34
2022-07-29T19:09:35.449Z,101347.22
2022-07-29T19:14:51.803Z,101336.03
2022-07-29T19:19:55.819Z,101348.81
2022-07-29T19:24:58.453Z,101353.16
2022-07-29T19:30:03.298Z,101365.72
2022-07-29T19:35:28.047Z,101366.66
2022-07-29T19:40:30.906Z,101380.25
2022-07-29T19:45:34.265Z,101380.75
2022-07-29T19:50:38.639Z,101390.06
2022-07-29T19:55:42.307Z,101403.84
2022-07-29T20:00:44.951Z,101404.66
2022-07-29T20:05:51.137Z,101409.34
2022-07-29T20:10:54.771Z,101414.50
2022-07-29T20:15:57.616Z,101405.31
2022-07-29T20:21:01.707Z,101410.06
2022-07-29T20:26:09.762Z,101418.13
2022-07-29T20:31:15.383Z,101418.38
2022-07-29T20:36:19.360Z,101413.81
2022-07-29T20:41:22.144Z,101420.81
2022-07-29T20:46:24.775Z,101428.31
2022-07-29T20:51:28.755Z,101425.59
2022-07-29T20:56:31.319Z,101422.13
2022-07-29T21:01:34.125Z,101422.59
2022-07-29T21:06:38.208Z,101438.44
2022-07-29T21:11:43.611Z,101445.28
2022-07-29T21:16:47.652Z,101442.22
2022-07-29T21:21:51.895Z,101442.91
2022-07-29T21:27:21.365Z,101460.41
2022-07-29T21:32:27.681Z,101451.03
2022-07-29T21:37:34.556Z,101449.91
2022-07-29T21:42:37.192Z,101452.09
2022-07-29T21:47:40.204Z,101462.53
2022-07-29T21:52:44.244Z,101457.66
2022-07-29T21:57:46.989Z,101447.03
2022-07-29T22:02:49.610Z,101456.66
2022-07-29T22:07:56.838Z,101455.16
2022-07-29T22:13:02.408Z,101461.81
2022-07-29T22:18:05.206Z,101458.19
2022-07-29T22:23:09.256Z,101465.09
2022-07-29T22:28:11.843Z,101456.44
2022-07-29T22:33:17.439Z,101450.63
2022-07-29T22:38:22.191Z,101446.00
2022-07-29T22:43:25.141Z,101453.38
2022-07-29T22:48:28.063Z,101450.56
2022-07-29T22:53:32.131Z,101445.44
2022-07-29T22:58:34.943Z,101437.13
2022-07-29T23:03:37.962Z,101432.56
2022-07-29T23:08:41.971Z,101430.50
2022-07-29T23:13:44.642Z,101427.09
2022-07-29T23:18:47.270Z,101416.63
2022-07-29T23:23:51.388Z,101407.03
2022-07-29T23:28:53.968Z,101406.47
2022-07-29T23:33:56.552Z,101416.34
2022-07-29T23:39:00.455Z,101414.22
2022-07-29T23:44:03.138Z,101420.00
2022-07-29T23:49:07.140Z,101413.50
2022-07-29T23:54:11.188Z,101410.69
2022-07-29T23:59:14.271Z,101409.56
